Time;durP1;ratioP1;P1;durP2;ratioP2;P2;SDS_P1;SDS_P2;PMS_P1;PMS_P2;Temp;Humidity;BMP_temperature;BMP_pressure;BME280_temperature;BME280_humidity;BME280_pressure;Samples;Min_cycle;Max_cycle;Signal;HPM_P1;HPM_P2
2022/05/14 00:01:26;;;;;;;;;;;16.50;75.00;;;15.65;70.26;96123.09;4268225;33;19902;-85
2022/05/14 00:03:55;;;;;;;;;;;16.40;74.90;;;15.65;70.40;96120.34;4244205;33;20090;-85
2022/05/14 00:06:25;;;;;;;;;;;16.50;75.10;;;15.65;70.21;96123.09;4243994;33;20239;-85
2022/05/14 00:08:53;;;;;;;;;;;16.50;75.10;;;15.65;70.07;96131.38;4293135;33;20236;-85
2022/05/14 00:14:09;;;;;;;;;;;16.40;74.90;;;15.63;69.99;96123.41;4244238;33;20112;-85
2022/05/14 00:16:38;;;;;;;;;;;16.40;75.00;;;15.64;70.06;96125.06;4243674;33;20120;-85
2022/05/14 00:19:08;;;;;;;;;;;16.40;74.90;;;15.62;69.93;96124.53;4292078;33;20067;-85
2022/05/14 00:21:37;;;;;;;;;;;16.40;74.90;;;15.63;70.04;96126.19;4268017;33;20118;-85
2022/05/14 00:24:43;;;;;;;;;;;16.40;75.40;;;15.63;70.01;96128.94;4244089;33;19917;-86
2022/05/14 00:27:17;;;;;;;;;;;16.40;74.90;;;15.62;69.99;96124.53;4243892;33;19966;-85
2022/05/14 00:29:47;;;;;;;;;;;16.50;75.00;;;15.62;70.10;96121.78;4267924;33;19901;-85
2022/05/14 00:32:16;;;;;;;;;;;16.40;74.80;;;15.62;70.04;96127.28;4267730;33;20224;-85
2022/05/14 00:34:45;;;;;;;;;;;16.40;74.90;;;15.61;69.94;96122.91;4267887;33;19909;-86
2022/05/14 00:37:13;;;;;;;;;;;16.40;74.90;;;15.63;70.15;96119.81;4243649;33;20384;-85
2022/05/14 00:39:42;;;;;;;;;;;16.40;74.90;;;15.62;70.06;96116.25;4243940;33;19901;-85
2022/05/14 00:42:11;;;;;;;;;;;16.40;74.90;;;15.61;70.06;96117.38;4243982;33;19923;-85
2022/05/14 00:44:39;;;;;;;;;;;16.40;75.00;;;15.62;70.22;96116.25;4267902;33;19901;-85
2022/05/14 00:47:14;;;;;;;;;;;16.40;74.90;;;15.62;70.05;96112.69;4267363;33;19909;-85
2022/05/14 00:49:42;;;;;;;;;;;16.40;74.90;;;15.62;70.05;96112.69;4267606;33;20153;-85
2022/05/14 00:52:14;;;;;;;;;;;16.40;74.90;;;15.61;70.00;96111.84;4267766;33;20359;-85
2022/05/14 00:54:45;;;;;;;;;;;16.50;75.00;;;15.60;69.92;96112.19;4244020;33;19924;-84
2022/05/14 00:57:15;;;;;;;;;;;16.40;74.80;;;15.60;70.13;96121.25;4243373;33;20457;-84
2022/05/14 00:59:44;;;;;;;;;;;16.40;74.90;;;15.60;70.07;96104.69;4243307;33;20121;-85
2022/05/14 01:02:14;;;;;;;;;;;16.40;74.90;;;15.60;69.90;96112.19;4267550;33;19902;-85
2022/05/14 01:04:43;;;;;;;;;;;16.40;74.90;;;15.60;70.00;96121.25;4267578;33;19901;-85
2022/05/14 01:07:15;;;;;;;;;;;16.40;74.90;;;15.60;69.92;96120.44;4243285;33;20124;-85
2022/05/14 01:09:49;;;;;;;;;;;16.40;74.80;;;15.60;70.05;96114.94;4243497;33;19901;-85
2022/05/14 01:12:18;;;;;;;;;;;16.40;74.90;;;15.59;70.12;96119.63;4243691;33;20310;-85
2022/05/14 01:14:48;;;;;;;;;;;16.40;74.90;;;15.59;69.83;96122.38;4243505;33;19905;-85
2022/05/14 01:17:20;;;;;;;;;;;16.50;75.00;;;15.60;70.08;96131.50;4243227;33;20147;-85
2022/05/14 01:19:48;;;;;;;;;;;16.40;74.80;;;15.57;69.67;96127.38;4267275;33;19974;-85
2022/05/14 01:22:29;;;;;;;;;;;16.40;74.80;;;15.58;70.18;96133.72;4267480;33;20079;-85
2022/05/14 01:27:59;;;;;;;;;;;16.40;75.70;;;15.59;70.01;96127.91;4243070;33;20108;-84
2022/05/14 01:30:29;;;;;;;;;;;16.40;74.80;;;15.58;69.97;96129.00;4242915;33;20143;-86
2022/05/14 01:33:07;;;;;;;;;;;16.40;74.80;;;15.59;69.91;96130.66;4243228;33;20047;-84
2022/05/14 01:35:42;;;;;;;;;;;16.40;74.80;;;15.57;69.77;96124.63;4267281;33;19908;-83
2022/05/14 01:38:11;;;;;;;;;;;16.40;74.80;;;15.58;69.74;96122.69;4315171;32;19907;-85
2022/05/14 01:40:42;;;;;;;;;;;16.40;74.80;;;15.58;69.97;96131.78;4243284;33;19908;-85
2022/05/14 01:43:12;;;;;;;;;;;16.40;74.80;;;15.58;69.88;96123.50;4243235;33;20285;-84
2022/05/14 01:45:42;;;;;;;;;;;16.40;74.80;;;15.57;70.03;96123.81;4243234;33;19901;-85
2022/05/14 01:48:11;;;;;;;;;;;16.40;74.80;;;15.58;69.85;96130.97;4290564;33;20478;-85
2022/05/14 01:50:41;;;;;;;;;;;16.40;75.00;;;15.55;69.88;96121.38;4266807;33;20006;-85
2022/05/14 01:53:10;;;;;;;;;;;16.40;74.90;;;15.56;69.93;96131.25;4266835;33;20225;-85
2022/05/14 01:55:38;;;;;;;;;;;16.40;74.90;;;15.57;70.38;96130.13;4290947;33;20046;-85
2022/05/14 02:00:52;;;;;;;;;;;16.40;74.90;;;15.57;69.99;96127.38;4265789;33;19901;-85
2022/05/14 02:03:21;;;;;;;;;;;16.40;74.90;;;15.57;70.01;96121.84;4243087;33;20020;-86
2022/05/14 02:05:50;;;;;;;;;;;16.40;74.90;;;15.57;70.01;96126.56;4266825;33;19902;-85
2022/05/14 02:08:19;;;;;;;;;;;16.40;74.90;;;15.57;69.92;96132.91;4266555;33;20121;-85
2022/05/14 02:10:48;;;;;;;;;;;16.40;74.90;;;15.56;69.84;96130.44;4265890;33;19939;-86
2022/05/14 02:13:19;;;;;;;;;;;16.40;74.90;;;15.56;70.06;96128.50;4242938;33;20134;-86
2022/05/14 02:15:47;;;;;;;;;;;16.40;74.90;;;15.57;70.30;96137.63;4290787;33;20213;-86
2022/05/14 02:18:18;;;;;;;;;;;16.40;74.90;;;15.57;70.01;96134.84;4242600;33;19908;-86
2022/05/14 02:20:46;;;;;;;;;;;16.40;74.90;;;15.56;69.96;96134.00;4242713;33;20005;-86
2022/05/14 02:23:15;;;;;;;;;;;16.40;74.90;;;15.57;69.53;96138.41;4266751;33;20129;-85
2022/05/14 02:25:44;;;;;;;;;;;16.40;74.90;;;15.57;69.93;96137.63;4242683;33;20369;-84
2022/05/14 02:28:13;;;;;;;;;;;16.40;74.90;;;15.56;70.06;96139.53;4242354;33;19935;-84
2022/05/14 02:30:41;;;;;;;;;;;16.40;74.90;;;15.56;70.02;96139.53;4266469;33;20348;-84
2022/05/14 02:33:10;;;;;;;;;;;16.40;74.90;;;15.56;70.06;96145.06;4266621;33;20074;-84
2022/05/14 02:35:40;;;;;;;;;;;16.40;74.90;;;15.55;69.98;96151.72;4314845;32;20240;-85
2022/05/14 02:42:32;;;;;;;;;;;16.40;75.00;;;15.56;69.95;96153.34;4971576;27;20730;31
2022/05/14 02:45:01;;;;;;;;;;;16.40;75.00;;;15.56;70.11;96164.38;4067317;34;19912;-86
2022/05/14 02:47:30;;;;;;;;;;;16.40;75.00;;;15.56;70.19;96169.09;4068981;34;20021;-86
2022/05/14 02:49:59;;;;;;;;;;;16.40;75.00;;;15.55;70.04;96168.28;4091196;34;20039;-86
2022/05/14 02:52:29;;;;;;;;;;;16.40;75.00;;;15.55;70.00;96168.28;4091311;34;20086;-85
2022/05/14 02:54:57;;;;;;;;;;;16.40;75.00;;;15.55;70.00;96173.78;4091112;34;19938;-85
2022/05/14 02:57:26;;;;;;;;;;;16.40;75.10;;;15.55;69.99;96173.78;4068461;34;20050;-85
2022/05/14 02:59:54;;;;;;;;;;;16.40;75.00;;;15.54;69.96;96172.16;4068927;34;19912;-85
2022/05/14 03:02:23;;;;;;;;;;;16.40;75.10;;;15.55;70.18;96168.28;4069161;34;20006;-85
2022/05/14 03:04:52;;;;;;;;;;;16.40;75.00;;;15.54;70.24;96166.63;4069226;34;20251;-85
2022/05/14 03:07:21;;;;;;;;;;;16.40;75.00;;;15.55;70.13;96167.44;4090739;34;19912;-85
2022/05/14 03:09:51;;;;;;;;;;;16.30;75.00;;;15.55;70.09;96167.44;4069041;34;20153;-85
2022/05/14 03:12:22;;;;;;;;;;;16.40;75.00;;;15.55;69.48;96171.03;4069038;34;20136;-85
2022/05/14 03:14:51;;;;;;;;;;;16.30;75.10;;;15.54;70.09;96163.88;4090977;34;20429;-85
2022/05/14 03:17:22;;;;;;;;;;;16.40;75.10;;;15.56;70.00;96169.09;4090881;34;20120;-85
2022/05/14 03:19:51;;;;;;;;;;;16.40;75.00;;;15.56;70.21;96172.66;4068963;34;20224;-84
2022/05/14 03:22:20;;;;;;;;;;;16.40;75.10;;;15.56;70.41;96175.41;4068865;34;20203;-85
2022/05/14 03:24:48;;;;;;;;;;;16.40;75.00;;;15.57;70.11;96182.56;4068995;35;20250;-85
2022/05/14 03:27:19;;;;;;;;;;;16.40;75.00;;;15.57;70.18;96177.03;4069536;35;19921;-83
2022/05/14 03:29:47;;;;;;;;;;;16.40;75.00;;;15.57;70.12;96182.56;4090845;34;19905;-84
2022/05/14 03:32:16;;;;;;;;;;;16.40;74.90;;;15.58;70.06;96178.69;4068483;35;20424;-84
2022/05/14 03:34:45;;;;;;;;;;;16.40;74.90;;;15.58;70.08;96181.44;4068966;35;19976;-85
2022/05/14 03:37:14;;;;;;;;;;;16.40;74.90;;;15.58;70.08;96178.69;4090460;34;20247;-85
2022/05/14 03:39:43;;;;;;;;;;;16.40;74.90;;;15.62;70.17;96188.00;4090741;34;20139;-84
2022/05/14 03:42:11;;;;;;;;;;;16.40;75.00;;;15.62;70.18;96201.00;4068837;35;20125;-85
2022/05/14 03:44:41;;;;;;;;;;;16.40;74.90;;;15.64;70.05;96202.31;4090749;34;19905;-84
2022/05/14 03:47:10;;;;;;;;;;;16.50;75.10;;;15.64;69.84;96199.56;4090528;34;19965;-85
2022/05/14 03:49:40;;;;;;;;;;;16.50;75.00;;;15.67;70.07;96198.13;4068703;35;20403;-85
2022/05/14 03:52:08;;;;;;;;;;;16.50;75.00;;;15.69;70.09;96203.31;4068880;35;20109;-85
2022/05/14 03:54:38;;;;;;;;;;;16.50;75.00;;;15.71;69.99;96203.84;4068846;35;19912;-85
2022/05/14 03:57:07;;;;;;;;;;;16.60;74.80;;;15.70;70.26;96213.25;4068384;35;19905;-86
2022/05/14 03:59:36;;;;;;;;;;;16.50;74.90;;;15.74;69.96;96220.66;4068740;35;20232;-85
2022/05/14 04:02:07;;;;;;;;;;;16.60;74.90;;;15.75;70.00;96222.25;4068784;35;19912;-86
2022/05/14 04:04:36;;;;;;;;;;;16.60;74.80;;;15.78;69.91;96223.59;4090816;34;20161;-85
2022/05/14 04:07:06;;;;;;;;;;;16.60;74.70;;;15.80;69.83;96224.13;4068251;35;19905;-85
2022/05/14 04:09:34;;;;;;;;;;;16.60;74.60;;;15.80;69.78;96219.41;4068631;35;20478;-85
2022/05/14 04:12:04;;;;;;;;;;;16.70;74.60;;;15.82;69.85;96232.91;4068612;35;19972;-85
2022/05/14 04:14:33;;;;;;;;;;;16.70;74.60;;;15.85;69.57;96237.84;4068716;35;19912;-86
2022/05/14 04:17:03;;;;;;;;;;;16.70;74.40;;;15.87;69.55;96235.59;4068232;35;20209;-85
2022/05/14 04:19:33;;;;;;;;;;;16.80;74.40;;;15.90;69.51;96229.47;4068640;35;19949;-85
2022/05/14 04:22:03;;;;;;;;;;;16.70;74.40;;;15.92;69.71;96238.28;4069472;35;20129;-85
2022/05/14 04:24:32;;;;;;;;;;;16.80;74.40;;;15.95;69.65;96236.84;4068622;35;20101;-85
2022/05/14 04:27:01;;;;;;;;;;;16.80;74.40;;;15.97;69.38;96244.81;4067983;35;19905;-86
2022/05/14 04:29:29;;;;;;;;;;;16.80;74.30;;;16.00;69.50;96244.22;4068284;35;20178;-86
2022/05/14 04:31:58;;;;;;;;;;;16.80;74.30;;;15.98;69.75;96233.50;4068567;35;19967;-85
2022/05/14 04:34:27;;;;;;;;;;;16.90;74.30;;;16.02;69.40;96239.22;4069231;34;20177;-85
2022/05/14 04:36:57;;;;;;;;;;;16.90;74.20;;;16.04;69.24;96240.53;4070289;34;20183;-85
2022/05/14 04:39:31;;;;;;;;;;;16.90;74.10;;;16.08;69.27;96243.50;4070671;34;20036;-85
2022/05/14 04:42:02;;;;;;;;;;;17.00;74.00;;;16.12;69.56;96247.28;4092587;34;20015;-85
2022/05/14 04:44:30;;;;;;;;;;;17.00;73.90;;;16.15;69.28;96249.47;4070640;34;19912;-86
2022/05/14 04:47:00;;;;;;;;;;;17.00;73.90;;;16.17;69.11;96244.44;4070379;34;20145;-86
2022/05/14 04:49:29;;;;;;;;;;;17.00;73.90;;;16.20;69.09;96249.34;4092652;34;20024;-87
2022/05/14 04:52:00;;;;;;;;;;;17.10;73.80;;;16.22;68.98;96252.63;4049020;34;19972;-86
2022/05/14 04:54:28;;;;;;;;;;;17.10;73.70;;;16.24;68.90;96241.28;4070663;34;19922;-86
2022/05/14 04:57:02;;;;;;;;;;;17.10;73.50;;;16.27;68.80;96248.94;4070424;34;20178;-86
2022/05/14 04:59:31;;;;;;;;;;;17.10;73.40;;;16.28;68.80;96238.72;4071441;34;20132;-86
2022/05/14 05:04:46;;;;;;;;;;;17.20;73.30;;;16.30;68.65;96245.56;4070574;34;20279;-86
2022/05/14 05:07:17;;;;;;;;;;;17.20;73.30;;;16.31;68.35;96249.16;4048491;34;20271;-86
2022/05/14 05:09:48;;;;;;;;;;;17.20;73.20;;;16.31;68.70;96249.97;4048754;34;19938;-85
2022/05/14 05:12:17;;;;;;;;;;;17.20;73.20;;;16.32;68.74;96242.50;4092546;34;20069;-86
2022/05/14 05:14:45;;;;;;;;;;;17.20;73.20;;;16.32;68.68;96245.28;4048785;34;20175;-87
2022/05/14 05:17:14;;;;;;;;;;;17.20;73.20;;;16.33;68.45;96246.91;4086259;34;19904;-85
2022/05/14 05:19:43;;;;;;;;;;;17.20;73.20;;;16.32;68.60;96239.75;4070405;34;19974;-86
2022/05/14 05:22:11;;;;;;;;;;;17.20;73.00;;;16.35;68.41;96241.88;4092526;34;20105;-86
2022/05/14 05:24:42;;;;;;;;;;;17.20;73.00;;;16.37;68.29;96245.16;4070234;34;19912;-86
2022/05/14 05:27:10;;;;;;;;;;;17.20;73.00;;;16.37;68.63;96242.41;4092036;34;19905;-86
2022/05/14 05:29:39;;;;;;;;;;;17.20;73.10;;;16.39;68.59;96237.38;4070127;34;19905;-87
2022/05/14 05:32:09;;;;;;;;;;;17.30;73.20;;;16.41;68.31;96248.94;4092171;34;19905;-87
2022/05/14 05:34:38;;;;;;;;;;;17.30;73.20;;;16.44;68.40;96251.13;4092290;34;19927;-87
2022/05/14 05:37:06;;;;;;;;;;;17.30;73.20;;;16.47;68.50;96247.72;4091990;34;20094;-87
2022/05/14 05:39:35;;;;;;;;;;;17.30;73.20;;;16.52;68.49;96249.56;4092130;34;20030;-85
2022/05/14 05:42:06;;;;;;;;;;;17.30;73.10;;;16.55;68.33;96258.06;4065724;34;20488;-86
2022/05/14 05:44:35;;;;;;;;;;;17.40;72.80;;;16.61;68.30;96260.69;4065734;34;19905;-86
2022/05/14 05:47:06;;;;;;;;;;;17.40;72.70;;;16.62;68.09;96256.81;4043634;35;19905;-86
2022/05/14 05:49:35;;;;;;;;;;;17.50;72.60;;;16.64;68.11;96252.63;4065786;34;20167;-86
2022/05/14 05:52:04;;;;;;;;;;;17.50;72.60;;;16.66;68.02;96244.03;4044774;35;19912;-87
2022/05/14 05:57:29;;;;;;;;;;;17.50;72.40;;;16.71;67.92;96247.50;4043645;35;19912;-87
2022/05/14 05:59:57;;;;;;;;;;;17.60;72.30;;;16.75;67.85;96247.69;4043871;35;19906;-88
2022/05/14 06:02:26;;;;;;;;;;;17.60;72.20;;;16.75;67.68;96244.91;4065657;34;19966;-86
2022/05/14 06:04:55;;;;;;;;;;;17.60;72.20;;;16.77;67.47;96250.16;4044065;35;19905;-86
2022/05/14 06:07:23;;;;;;;;;;;17.60;72.00;;;16.79;67.61;96245.94;4022195;35;19912;-86
2022/05/14 06:09:52;;;;;;;;;;;17.60;72.00;;;16.82;67.50;96241.75;4043979;35;20240;-86
2022/05/14 06:12:24;;;;;;;;;;;17.70;72.20;;;16.81;67.46;96249.22;4043921;35;20118;-87
2022/05/14 06:14:53;;;;;;;;;;;17.70;72.00;;;16.82;67.47;96242.56;4044012;35;19912;-87
2022/05/14 06:17:21;;;;;;;;;;;17.70;72.00;;;16.82;67.50;96247.25;4043646;35;19912;-87
2022/05/14 06:19:50;;;;;;;;;;;17.70;72.10;;;16.84;67.30;96240.31;4043834;35;20163;-86
2022/05/14 06:22:19;;;;;;;;;;;17.70;72.00;;;16.85;67.67;96247.47;4043742;35;19905;-86
2022/05/14 06:24:48;;;;;;;;;;;17.70;72.00;;;16.86;67.54;96251.88;4043841;35;20091;-86
2022/05/14 06:27:17;;;;;;;;;;;17.70;72.10;;;16.86;67.40;96245.53;4043671;35;19905;-86
2022/05/14 06:29:47;;;;;;;;;;;17.70;72.00;;;16.85;67.61;96244.69;4043861;35;19912;-86
2022/05/14 06:32:15;;;;;;;;;;;17.70;72.10;;;16.84;67.63;96243.09;4043927;35;19913;-86
2022/05/14 06:34:45;;;;;;;;;;;17.70;72.10;;;16.86;67.44;96242.75;4043982;35;20168;-87
2022/05/14 06:37:14;;;;;;;;;;;17.70;72.00;;;16.86;67.44;96238.03;4043524;35;20442;-86
2022/05/14 06:39:43;;;;;;;;;;;17.70;72.00;;;16.91;67.36;96228.81;4022345;35;20380;-86
2022/05/14 06:42:13;;;;;;;;;;;17.70;72.00;;;16.91;67.44;96239.88;4043834;35;20163;-86
2022/05/14 06:44:42;;;;;;;;;;;17.70;71.90;;;16.95;67.60;96234.59;4090626;34;19905;-87
2022/05/14 06:47:18;;;;;;;;;;;17.80;71.90;;;16.94;67.17;96233.75;4073642;34;19904;-86
2022/05/14 06:50:00;;;;;;;;;;;17.80;71.80;;;16.94;67.39;96232.91;4052517;34;19905;-86
2022/05/14 06:52:29;;;;;;;;;;;17.80;72.00;;;16.94;67.49;96233.75;4096169;34;19974;-86
2022/05/14 06:54:59;;;;;;;;;;;17.80;71.90;;;16.96;67.23;96233.47;4096344;34;20131;-87
2022/05/14 06:57:28;;;;;;;;;;;17.80;71.80;;;16.98;67.20;96242.25;4095425;34;20141;-87
2022/05/14 06:59:56;;;;;;;;;;;17.80;71.90;;;17.01;67.22;96244.38;4073968;34;19904;-87
2022/05/14 07:02:26;;;;;;;;;;;17.80;71.90;;;17.03;67.45;96236.59;4074128;34;19905;-87
2022/05/14 07:08:41;;;;;;;;;;;17.80;71.90;;;17.07;66.99;96243.16;4073429;34;19905;-87
2022/05/14 07:11:20;;;;;;;;;;;17.90;71.90;;;17.11;67.04;96233.09;4073802;34;19912;-87
2022/05/14 07:13:49;;;;;;;;;;;17.90;71.80;;;17.15;66.80;96241.59;4074088;34;19904;-86
2022/05/14 07:16:17;;;;;;;;;;;18.00;71.60;;;17.17;66.77;96236.56;4095464;34;20163;-87
2022/05/14 07:18:47;;;;;;;;;;;18.00;71.50;;;17.18;66.83;96243.72;4084420;34;19911;-88
2022/05/14 07:21:16;;;;;;;;;;;17.90;71.50;;;17.17;66.70;96237.38;4095911;34;19911;-87
2022/05/14 07:23:45;;;;;;;;;;;18.00;71.30;;;17.18;66.69;96235.41;4073727;34;20224;-88
2022/05/14 07:26:13;;;;;;;;;;;18.00;71.30;;;17.18;66.70;96244.56;4073139;34;19905;-87
2022/05/14 07:28:42;;;;;;;;;;;18.00;71.30;;;17.16;66.71;96237.72;4073462;34;19912;-88
2022/05/14 07:31:11;;;;;;;;;;;18.00;71.30;;;17.16;66.78;96234.94;4073530;34;19905;-88
2022/05/14 07:33:40;;;;;;;;;;;18.00;71.50;;;17.13;66.95;96236.34;4096089;34;20317;-87
2022/05/14 07:36:13;;;;;;;;;;;18.00;71.40;;;17.14;66.86;96242.72;4073406;34;19912;-88
2022/05/14 07:38:52;;;;;;;;;;;18.00;71.50;;;17.12;66.97;96234.72;4095979;34;19911;-88
2022/05/14 07:41:24;;;;;;;;;;;18.00;71.60;;;17.14;67.08;96240.75;4073937;34;19912;-88
2022/05/14 07:43:53;;;;;;;;;;;18.00;71.60;;;17.13;67.05;96236.34;4095741;34;20232;-87
2022/05/14 07:46:26;;;;;;;;;;;18.00;71.50;;;17.11;67.04;96243.34;4051701;34;19912;-88
2022/05/14 07:48:58;;;;;;;;;;;18.00;71.60;;;17.05;67.21;96245.41;4095722;34;19905;-87
2022/05/14 07:51:28;;;;;;;;;;;17.90;71.60;;;17.02;67.51;96243.25;4095773;34;20216;-88
2022/05/14 07:53:57;;;;;;;;;;;17.90;71.80;;;17.02;67.32;96244.09;4073618;34;19939;-88
2022/05/14 07:56:25;;;;;;;;;;;17.80;71.90;;;17.02;67.85;96240.50;4073445;34;20322;-88
2022/05/14 07:58:54;;;;;;;;;;;17.90;72.10;;;17.02;67.30;96249.63;4073664;34;20216;-88
2022/05/14 08:01:23;;;;;;;;;;;17.90;72.00;;;17.02;67.49;96246.88;4052012;34;20220;-87
2022/05/14 08:03:51;;;;;;;;;;;17.90;72.20;;;17.05;67.48;96242.66;4073740;34;20054;-87
2022/05/14 08:06:22;;;;;;;;;;;17.90;72.20;;;17.05;67.48;96244.56;4051410;34;19909;-87
2022/05/14 08:08:53;;;;;;;;;;;17.90;72.20;;;17.10;67.61;96256.38;4052094;34;19912;-86
2022/05/14 08:11:27;;;;;;;;;;;17.90;72.30;;;17.12;67.53;96242.22;4075983;34;20127;-87
2022/05/14 08:13:58;;;;;;;;;;;17.90;72.10;;;17.13;67.37;96247.44;4097898;34;20372;-87
2022/05/14 08:16:45;;;;;;;;;;;17.90;72.00;;;17.14;67.32;96251.81;4075335;34;19911;-87
2022/05/14 08:19:13;;;;;;;;;;;18.00;72.00;;;17.14;67.37;96242.72;4097509;34;19915;-87
2022/05/14 08:24:38;;;;;;;;;;;18.00;71.90;;;17.14;67.26;96235.22;4082216;34;20135;-88
2022/05/14 08:27:10;;;;;;;;;;;18.00;71.80;;;17.12;67.23;96240.25;4097285;34;19912;-88
2022/05/14 08:29:39;;;;;;;;;;;18.00;71.80;;;17.13;67.22;96236.34;4097746;34;19927;-86
2022/05/14 08:32:13;;;;;;;;;;;18.00;71.80;;;17.11;67.37;96238.63;4097651;34;19905;-88
2022/05/14 08:34:42;;;;;;;;;;;18.00;72.00;;;17.13;67.50;96246.63;4097733;34;19905;-86
2022/05/14 08:37:12;;;;;;;;;;;18.00;71.90;;;17.12;67.39;96240.25;4075008;34;19911;-87
2022/05/14 08:39:57;;;;;;;;;;;18.00;71.80;;;17.11;67.25;96244.16;4075772;34;20223;-87
2022/05/14 08:42:26;;;;;;;;;;;18.00;71.90;;;17.11;67.37;96243.34;4097520;34;20233;-86
2022/05/14 08:44:55;;;;;;;;;;;18.00;71.90;;;17.09;67.36;96238.13;4053952;34;20029;-87
2022/05/14 08:47:28;;;;;;;;;;;18.00;71.80;;;17.11;67.39;96244.16;4075100;34;19912;-87
2022/05/14 08:49:57;;;;;;;;;;;17.90;71.90;;;17.09;67.27;96240.91;4075339;34;20091;-87
2022/05/14 08:52:27;;;;;;;;;;;17.90;71.90;;;17.08;67.42;96233.72;4075464;34;19910;-87
2022/05/14 08:54:59;;;;;;;;;;;18.00;71.90;;;17.09;67.45;96240.06;4097652;34;20007;-88
2022/05/14 08:57:33;;;;;;;;;;;17.90;72.00;;;17.08;67.21;96244.78;4096954;34;19904;-87
2022/05/14 09:00:03;;;;;;;;;;;17.90;72.00;;;17.09;67.54;96231.78;4075308;34;19904;-87
2022/05/14 09:02:33;;;;;;;;;;;17.90;72.00;;;17.09;67.48;96226.25;4097430;34;20224;-87
2022/05/14 09:05:10;;;;;;;;;;;17.90;71.90;;;17.09;67.50;96238.13;4097323;34;19992;-87
2022/05/14 09:07:38;;;;;;;;;;;17.90;72.00;;;17.10;67.63;96239.78;4074952;34;19904;-87
2022/05/14 09:10:19;;;;;;;;;;;17.90;72.10;;;17.07;67.64;96226.56;4074934;34;19904;-87
2022/05/14 09:12:59;;;;;;;;;;;17.90;72.00;;;17.09;67.51;96231.78;4098229;34;19905;-87
2022/05/14 09:15:46;;;;;;;;;;;17.90;72.10;;;17.08;67.63;96239.25;4075304;34;19905;-88
2022/05/14 09:18:21;;;;;;;;;;;17.90;72.10;;;17.08;67.84;96230.13;4074234;34;19905;-87
2022/05/14 09:20:54;;;;;;;;;;;17.90;72.10;;;17.08;68.01;96228.19;4074784;34;19927;-87
2022/05/14 09:23:29;;;;;;;;;;;17.90;72.30;;;17.09;67.77;96237.31;4075766;34;19911;-86
2022/05/14 09:26:03;;;;;;;;;;;18.00;72.10;;;17.10;67.87;96239.78;4074728;34;20419;-86
2022/05/14 09:28:46;;;;;;;;;;;18.00;72.20;;;17.11;67.57;96244.16;4075126;34;19905;-87
2022/05/14 09:31:34;;;;;;;;;;;18.00;72.10;;;17.09;67.61;96235.38;4075094;34;20152;-86
2022/05/14 09:34:18;;;;;;;;;;;18.00;72.30;;;17.11;67.75;96246.13;4055831;34;19904;-87
2022/05/14 09:36:48;;;;;;;;;;;18.00;72.20;;;17.11;67.78;96244.16;4058387;34;20121;-87
2022/05/14 09:39:20;;;;;;;;;;;18.00;72.30;;;17.11;68.20;96243.34;4096739;34;19912;-87
2022/05/14 09:41:52;;;;;;;;;;;18.00;72.30;;;17.09;67.85;96240.06;4074998;34;20141;-87
2022/05/14 09:44:22;;;;;;;;;;;18.00;72.40;;;17.10;68.03;96237.00;4074884;34;20059;-87
2022/05/14 09:46:52;;;;;;;;;;;18.00;72.40;;;17.09;68.07;96238.13;4078576;34;19912;-86
2022/05/14 09:49:23;;;;;;;;;;;18.00;72.40;;;17.10;68.02;96242.53;4074701;34;19904;-87
2022/05/14 09:52:05;;;;;;;;;;;;;;;;;;;;;
2022/05/14 09:54:41;;;;;;;;;;;18.00;72.50;;;17.08;68.11;96242.03;4053446;34;20239;-87
2022/05/14 09:57:33;;;;;;;;;;;17.90;72.50;;;17.08;68.10;96230.97;4096423;34;20111;-86
2022/05/14 10:00:14;;;;;;;;;;;17.90;72.60;;;17.07;68.08;96242.31;4097847;34;20163;-86
2022/05/14 10:03:11;;;;;;;;;;;17.90;72.40;;;17.06;68.21;96238.75;4074174;34;20196;-88
2022/05/14 10:05:50;;;;;;;;;;;17.90;72.60;;;17.05;68.32;96250.09;4074787;34;20112;-87
2022/05/14 10:08:35;;;;;;;;;;;17.90;72.80;;;17.05;68.41;96245.41;4096509;34;19905;-89
2022/05/14 10:11:17;;;;;;;;;;;17.90;72.80;;;17.05;68.26;96244.56;4096747;34;20212;-87
2022/05/14 10:13:52;;;;;;;;;;;17.90;72.90;;;17.04;68.39;96241.00;4074639;34;19996;-87
2022/05/14 10:16:24;;;;;;;;;;;17.90;72.90;;;17.04;68.48;96240.19;4096287;34;20107;-88
2022/05/14 10:19:05;;;;;;;;;;;17.90;72.90;;;16.99;68.49;96238.34;4053025;34;19968;-87
2022/05/14 10:21:41;;;;;;;;;;;17.90;73.10;;;16.99;68.57;96243.88;4074617;34;19912;-88
2022/05/14 10:27:30;;;;;;;;;;;17.90;73.10;;;16.99;68.53;96253.00;4073595;34;19904;-87
2022/05/14 10:30:14;;;;;;;;;;;17.90;73.10;;;16.97;68.54;96235.91;4094179;34;20155;-88
2022/05/14 10:32:42;;;;;;;;;;;17.90;73.10;;;16.98;68.59;96242.25;4073823;34;20127;-88
2022/05/14 10:35:17;;;;;;;;;;;17.90;73.10;;;16.97;68.64;96251.69;4052887;34;20104;-87
2022/05/14 10:37:50;;;;;;;;;;;17.90;73.20;;;16.96;68.63;96253.63;4052488;34;19904;-88
2022/05/14 10:40:24;;;;;;;;;;;17.90;73.10;;;16.97;68.66;96254.47;4096645;34;19919;-88
2022/05/14 10:43:12;;;;;;;;;;;17.80;73.10;;;16.93;68.79;96247.88;4074068;34;19904;-89
2022/05/14 10:45:44;;;;;;;;;;;17.80;73.20;;;16.91;68.60;96244.59;4052862;34;19919;-88
2022/05/14 10:48:30;;;;;;;;;;;17.80;73.20;;;16.92;68.80;96241.50;4095309;34;19912;-87
2022/05/14 10:50:59;;;;;;;;;;;17.80;73.40;;;16.91;68.91;96245.41;4096442;34;19904;-88
2022/05/14 10:53:27;;;;;;;;;;;17.80;73.40;;;16.91;68.88;96247.34;4097269;34;19905;-88
2022/05/14 10:56:04;;;;;;;;;;;17.80;73.40;;;16.93;68.62;96242.34;4074055;34;20137;-88
2022/05/14 10:58:45;;;;;;;;;;;17.80;73.40;;;16.93;68.93;96247.88;4073630;34;19904;-88
2022/05/14 11:01:30;;;;;;;;;;;17.80;73.50;;;16.94;69.10;96241.22;4074288;34;20280;-87
2022/05/14 11:07:43;;;;;;;;;;;17.80;73.50;;;16.92;68.97;96238.75;4073553;34;20370;-88
2022/05/14 11:10:18;;;;;;;;;;;17.80;73.60;;;16.93;69.20;96243.16;4052425;34;20228;-88
2022/05/14 11:12:47;;;;;;;;;;;17.80;73.60;;;16.93;69.05;96231.28;4074329;34;19905;-88
2022/05/14 11:15:21;;;;;;;;;;;17.80;73.60;;;16.93;68.94;96231.28;4074164;34;20165;-88
2022/05/14 11:18:03;;;;;;;;;;;17.80;73.60;;;16.93;69.02;96221.03;4073706;34;19904;-88
2022/05/14 11:20:34;;;;;;;;;;;17.80;73.50;;;16.94;68.92;96227.38;4074207;34;20171;-87
2022/05/14 11:23:08;;;;;;;;;;;17.80;73.50;;;16.94;68.90;96213.56;4074266;34;20135;-87
2022/05/14 11:25:37;;;;;;;;;;;17.80;73.50;;;16.95;69.01;96218.00;4074102;34;20213;-87
2022/05/14 11:28:08;;;;;;;;;;;17.80;73.50;;;16.94;68.76;96216.31;4095469;34;20082;-86
2022/05/14 11:30:38;;;;;;;;;;;17.80;73.40;;;16.95;68.93;96212.47;4074028;34;19909;-87
2022/05/14 11:33:20;;;;;;;;;;;17.80;73.40;;;16.93;68.88;96217.44;4073968;34;19972;-87
2022/05/14 11:35:52;;;;;;;;;;;17.80;73.50;;;16.92;69.30;96218.56;4052209;34;19912;-88
2022/05/14 11:38:36;;;;;;;;;;;17.80;73.60;;;16.92;69.05;96204.75;4074064;34;19975;-88
2022/05/14 11:41:06;;;;;;;;;;;17.80;73.60;;;16.91;69.13;96205.88;4073928;34;19912;-88
2022/05/14 11:43:36;;;;;;;;;;;17.80;73.80;;;16.90;69.36;96207.00;4053097;34;19904;-88
2022/05/14 11:46:26;;;;;;;;;;;17.70;73.90;;;16.90;69.18;96207.00;4075796;34;20132;-88
2022/05/14 11:48:59;;;;;;;;;;;17.70;73.90;;;16.89;69.51;96208.97;4076202;34;19912;-88
2022/05/14 11:51:33;;;;;;;;;;;17.70;73.90;;;16.88;69.19;96208.13;4076380;34;19905;-87
2022/05/14 11:54:15;;;;;;;;;;;17.70;73.90;;;16.88;69.38;96210.09;4076069;34;19911;-88
2022/05/14 11:56:52;;;;;;;;;;;17.70;74.00;;;16.86;69.38;96199.31;4075825;34;19911;-87
2022/05/14 11:59:42;;;;;;;;;;;17.70;74.10;;;16.85;69.46;96203.22;4076061;34;19905;-88
2022/05/14 12:02:22;;;;;;;;;;;17.70;74.00;;;16.87;69.34;96200.16;4076142;34;19905;-87
2022/05/14 12:05:01;;;;;;;;;;;17.70;74.00;;;16.88;69.40;96205.38;4076142;34;19911;-87
2022/05/14 12:08:14;;;;;;;;;;;17.70;74.00;;;16.88;69.26;96202.59;4075724;34;20123;-88
2022/05/14 12:10:51;;;;;;;;;;;17.70;73.90;;;16.90;69.35;96199.53;4098038;34;19904;-87
2022/05/14 12:13:24;;;;;;;;;;;17.70;73.90;;;16.88;69.43;96202.59;4075950;34;19904;-88